sensor_id;sensor_type;location;lat;lon;timestamp;pressure;altitude;pressure_sealevel;temperature;humidity
21574;BME280;10948;48.706;9.258;2022-12-18T00:00:00;98917.56;;;-8.12;100.00
21574;BME280;10948;48.706;9.258;2022-12-18T00:02:25;98918.69;;;-8.03;100.00
21574;BME280;10948;48.706;9.258;2022-12-18T00:04:51;98920.41;;;-8.02;100.00
21574;BME280;10948;48.706;9.258;2022-12-18T00:07:16;98933.16;;;-7.97;100.00
21574;BME280;10948;48.706;9.258;2022-12-18T00:09:41;98936.22;;;-8.07;100.00
21574;BME280;10948;48.706;9.258;2022-12-18T00:12:06;98935.22;;;-8.14;100.00
21574;BME280;10948;48.706;9.258;2022-12-18T00:14:32;98941.47;;;-8.29;100.00
21574;BME280;10948;48.706;9.258;2022-12-18T00:16:57;98933.59;;;-8.38;100.00
21574;BME280;10948;48.706;9.258;2022-12-18T00:19:25;98938.00;;;-8.31;100.00
21574;BME280;10948;48.706;9.258;2022-12-18T00:21:50;98931.00;;;-8.13;100.00
21574;BME280;10948;48.706;9.258;2022-12-18T00:24:16;98934.59;;;-8.05;100.00
21574;BME280;10948;48.706;9.258;2022-12-18T00:26:41;98940.41;;;-8.08;100.00
21574;BME280;10948;48.706;9.258;2022-12-18T00:29:07;98937.09;;;-8.07;100.00
21574;BME280;10948;48.706;9.258;2022-12-18T00:31:33;98935.09;;;-7.90;100.00
21574;BME280;10948;48.706;9.258;2022-12-18T00:33:58;98933.91;;;-7.73;100.00
21574;BME280;10948;48.706;9.258;2022-12-18T00:36:25;98930.56;;;-7.74;100.00
21574;BME280;10948;48.706;9.258;2022-12-18T00:38:51;98933.72;;;-7.79;100.00
21574;BME280;10948;48.706;9.258;2022-12-18T00:41:16;98942.31;;;-7.74;100.00
21574;BME280;10948;48.706;9.258;2022-12-18T00:44:02;98948.88;;;-7.79;100.00
21574;BME280;10948;48.706;9.258;2022-12-18T00:46:28;98954.69;;;-7.82;100.00
21574;BME280;10948;48.706;9.258;2022-12-18T00:48:53;98950.13;;;-7.93;100.00
21574;BME280;10948;48.706;9.258;2022-12-18T00:51:18;98953.44;;;-7.68;100.00
21574;BME280;10948;48.706;9.258;2022-12-18T00:53:44;98953.41;;;-7.69;100.00
21574;BME280;10948;48.706;9.258;2022-12-18T00:56:09;98947.59;;;-7.67;100.00
21574;BME280;10948;48.706;9.258;2022-12-18T00:58:34;98955.50;;;-7.83;100.00
21574;BME280;10948;48.706;9.258;2022-12-18T01:00:59;98953.19;;;-8.03;100.00
21574;BME280;10948;48.706;9.258;2022-12-18T01:03:24;98947.53;;;-7.96;100.00
21574;BME280;10948;48.706;9.258;2022-12-18T01:05:50;98957.84;;;-8.15;100.00
21574;BME280;10948;48.706;9.258;2022-12-18T01:08:15;98953.28;;;-8.53;100.00
21574;BME280;10948;48.706;9.258;2022-12-18T01:10:40;98949.34;;;-8.17;100.00
21574;BME280;10948;48.706;9.258;2022-12-18T01:13:06;98957.78;;;-8.45;100.00
21574;BME280;10948;48.706;9.258;2022-12-18T01:15:31;98956.50;;;-8.57;100.00
21574;BME280;10948;48.706;9.258;2022-12-18T01:17:56;98961.19;;;-8.16;100.00
21574;BME280;10948;48.706;9.258;2022-12-18T01:20:22;98953.88;;;-8.35;100.00
21574;BME280;10948;48.706;9.258;2022-12-18T01:22:47;98950.66;;;-8.56;100.00
21574;BME280;10948;48.706;9.258;2022-12-18T01:25:12;98951.66;;;-8.51;100.00
21574;BME280;10948;48.706;9.258;2022-12-18T01:27:37;98950.41;;;-8.64;100.00
21574;BME280;10948;48.706;9.258;2022-12-18T01:30:03;98955.66;;;-8.05;100.00
21574;BME280;10948;48.706;9.258;2022-12-18T01:32:29;98960.09;;;-8.26;100.00
21574;BME280;10948;48.706;9.258;2022-12-18T01:34:55;98958.13;;;-8.59;100.00
21574;BME280;10948;48.706;9.258;2022-12-18T01:37:20;98965.06;;;-8.77;100.00
21574;BME280;10948;48.706;9.258;2022-12-18T01:39:45;98959.22;;;-8.76;100.00
21574;BME280;10948;48.706;9.258;2022-12-18T01:42:12;98951.44;;;-8.57;100.00
21574;BME280;10948;48.706;9.258;2022-12-18T01:44:55;98955.28;;;-8.68;100.00
21574;BME280;10948;48.706;9.258;2022-12-18T01:49:52;98953.66;;;-8.91;100.00
21574;BME280;10948;48.706;9.258;2022-12-18T01:52:18;98960.53;;;-8.87;100.00
21574;BME280;10948;48.706;9.258;2022-12-18T01:54:43;98962.31;;;-9.08;100.00
21574;BME280;10948;48.706;9.258;2022-12-18T01:57:09;98958.09;;;-9.31;100.00
21574;BME280;10948;48.706;9.258;2022-12-18T01:59:35;98960.97;;;-9.22;100.00
21574;BME280;10948;48.706;9.258;2022-12-18T02:02:00;98957.69;;;-9.20;100.00
21574;BME280;10948;48.706;9.258;2022-12-18T02:04:26;98955.91;;;-9.22;100.00
21574;BME280;10948;48.706;9.258;2022-12-18T02:06:59;98958.16;;;-9.30;100.00
21574;BME280;10948;48.706;9.258;2022-12-18T02:09:34;98961.78;;;-9.45;100.00
21574;BME280;10948;48.706;9.258;2022-12-18T02:22:15;98959.44;;;-9.17;100.00
21574;BME280;10948;48.706;9.258;2022-12-18T02:27:14;98969.06;;;-9.75;100.00
21574;BME280;10948;48.706;9.258;2022-12-18T02:29:41;98962.72;;;-9.65;100.00
21574;BME280;10948;48.706;9.258;2022-12-18T02:32:13;98956.03;;;-9.65;100.00
21574;BME280;10948;48.706;9.258;2022-12-18T02:34:39;98959.16;;;-9.48;100.00
21574;BME280;10948;48.706;9.258;2022-12-18T02:37:06;98958.22;;;-9.50;100.00
21574;BME280;10948;48.706;9.258;2022-12-18T02:39:33;98970.09;;;-9.70;100.00
21574;BME280;10948;48.706;9.258;2022-12-18T02:41:58;98974.72;;;-10.02;100.00
21574;BME280;10948;48.706;9.258;2022-12-18T02:44:24;98978.25;;;-9.97;100.00
21574;BME280;10948;48.706;9.258;2022-12-18T02:46:50;98974.31;;;-9.91;100.00
21574;BME280;10948;48.706;9.258;2022-12-18T02:56:51;98976.59;;;-10.18;100.00
21574;BME280;10948;48.706;9.258;2022-12-18T02:59:19;98980.75;;;-9.97;100.00
21574;BME280;10948;48.706;9.258;2022-12-18T03:01:50;98980.50;;;-10.04;100.00
21574;BME280;10948;48.706;9.258;2022-12-18T03:04:34;98985.41;;;-10.07;100.00
21574;BME280;10948;48.706;9.258;2022-12-18T03:07:02;98983.50;;;-9.91;100.00
21574;BME280;10948;48.706;9.258;2022-12-18T03:09:34;98976.44;;;-10.01;100.00
21574;BME280;10948;48.706;9.258;2022-12-18T03:12:08;98961.34;;;-10.01;100.00
21574;BME280;10948;48.706;9.258;2022-12-18T03:14:52;98967.84;;;-9.84;100.00
21574;BME280;10948;48.706;9.258;2022-12-18T03:17:19;98979.19;;;-9.73;100.00
21574;BME280;10948;48.706;9.258;2022-12-18T03:19:46;98979.22;;;-9.94;100.00
21574;BME280;10948;48.706;9.258;2022-12-18T03:22:11;98982.53;;;-9.95;100.00
21574;BME280;10948;48.706;9.258;2022-12-18T03:24:37;98980.53;;;-10.25;100.00
21574;BME280;10948;48.706;9.258;2022-12-18T03:27:05;98981.97;;;-10.30;100.00
21574;BME280;10948;48.706;9.258;2022-12-18T03:29:52;99000.03;;;-10.40;100.00
21574;BME280;10948;48.706;9.258;2022-12-18T03:32:28;98998.75;;;-10.70;100.00
21574;BME280;10948;48.706;9.258;2022-12-18T03:34:55;99002.31;;;-10.65;100.00
21574;BME280;10948;48.706;9.258;2022-12-18T03:37:23;99000.09;;;-10.78;100.00
21574;BME280;10948;48.706;9.258;2022-12-18T03:39:48;98999.84;;;-10.24;100.00
21574;BME280;10948;48.706;9.258;2022-12-18T03:42:20;98991.44;;;-10.45;100.00
21574;BME280;10948;48.706;9.258;2022-12-18T03:44:50;98987.50;;;-10.59;100.00
21574;BME280;10948;48.706;9.258;2022-12-18T03:47:29;99002.31;;;-10.65;100.00
21574;BME280;10948;48.706;9.258;2022-12-18T03:50:09;98985.28;;;-10.72;100.00
21574;BME280;10948;48.706;9.258;2022-12-18T03:52:38;98980.97;;;-10.95;100.00
21574;BME280;10948;48.706;9.258;2022-12-18T03:55:05;98988.22;;;-11.20;100.00
21574;BME280;10948;48.706;9.258;2022-12-18T03:57:31;98989.34;;;-11.13;100.00
21574;BME280;10948;48.706;9.258;2022-12-18T03:59:59;98996.22;;;-11.09;100.00
21574;BME280;10948;48.706;9.258;2022-12-18T04:02:25;98994.31;;;-10.96;100.00
21574;BME280;10948;48.706;9.258;2022-12-18T04:04:52;98998.94;;;-11.05;100.00
21574;BME280;10948;48.706;9.258;2022-12-18T04:07:18;98995.13;;;-11.16;100.00
21574;BME280;10948;48.706;9.258;2022-12-18T04:09:44;98992.38;;;-11.20;100.00
21574;BME280;10948;48.706;9.258;2022-12-18T04:12:10;98997.34;;;-11.22;100.00
21574;BME280;10948;48.706;9.258;2022-12-18T04:14:35;98994.78;;;-11.23;100.00
21574;BME280;10948;48.706;9.258;2022-12-18T04:17:01;98993.63;;;-11.49;100.00
21574;BME280;10948;48.706;9.258;2022-12-18T04:19:26;98987.03;;;-11.47;100.00
21574;BME280;10948;48.706;9.258;2022-12-18T04:21:51;98985.84;;;-11.55;100.00
21574;BME280;10948;48.706;9.258;2022-12-18T04:24:16;98995.56;;;-11.80;100.00
21574;BME280;10948;48.706;9.258;2022-12-18T04:26:42;98999.41;;;-11.50;100.00
21574;BME280;10948;48.706;9.258;2022-12-18T04:29:07;98988.91;;;-11.79;100.00
21574;BME280;10948;48.706;9.258;2022-12-18T04:31:32;98997.56;;;-11.73;100.00
21574;BME280;10948;48.706;9.258;2022-12-18T04:33:57;98998.69;;;-11.66;100.00
21574;BME280;10948;48.706;9.258;2022-12-18T04:36:23;99000.28;;;-11.68;100.00
21574;BME280;10948;48.706;9.258;2022-12-18T04:38:48;99001.56;;;-11.59;100.00
21574;BME280;10948;48.706;9.258;2022-12-18T04:41:13;99004.31;;;-11.72;100.00
21574;BME280;10948;48.706;9.258;2022-12-18T04:43:38;99013.56;;;-11.52;100.00
21574;BME280;10948;48.706;9.258;2022-12-18T04:46:04;99007.59;;;-11.73;100.00
21574;BME280;10948;48.706;9.258;2022-12-18T04:48:30;99020.47;;;-12.02;100.00
21574;BME280;10948;48.706;9.258;2022-12-18T04:50:55;99013.34;;;-11.93;100.00
21574;BME280;10948;48.706;9.258;2022-12-18T04:53:20;99001.94;;;-11.86;100.00
21574;BME280;10948;48.706;9.258;2022-12-18T04:55:45;99000.63;;;-11.97;100.00
21574;BME280;10948;48.706;9.258;2022-12-18T04:58:10;99001.44;;;-12.32;100.00
21574;BME280;10948;48.706;9.258;2022-12-18T05:00:36;98992.72;;;-12.22;100.00
21574;BME280;10948;48.706;9.258;2022-12-18T05:03:01;98989.50;;;-12.20;100.00
21574;BME280;10948;48.706;9.258;2022-12-18T05:05:27;98979.59;;;-12.34;100.00
21574;BME280;10948;48.706;9.258;2022-12-18T05:07:52;98981.56;;;-11.94;100.00
21574;BME280;10948;48.706;9.258;2022-12-18T05:10:17;98980.09;;;-12.06;100.00
21574;BME280;10948;48.706;9.258;2022-12-18T05:12:42;98981.09;;;-12.03;100.00
21574;BME280;10948;48.706;9.258;2022-12-18T05:15:34;98988.38;;;-12.09;100.00
21574;BME280;10948;48.706;9.258;2022-12-18T05:17:59;98985.84;;;-12.26;100.00
21574;BME280;10948;48.706;9.258;2022-12-18T05:20:26;98988.63;;;-12.38;100.00
21574;BME280;10948;48.706;9.258;2022-12-18T05:22:51;98991.13;;;-12.38;100.00
21574;BME280;10948;48.706;9.258;2022-12-18T05:25:17;99002.75;;;-12.22;100.00
21574;BME280;10948;48.706;9.258;2022-12-18T05:27:42;99006.25;;;-12.19;100.00
21574;BME280;10948;48.706;9.258;2022-12-18T05:30:07;99009.69;;;-12.17;100.00
21574;BME280;10948;48.706;9.258;2022-12-18T05:32:33;99006.69;;;-12.10;100.00
21574;BME280;10948;48.706;9.258;2022-12-18T05:34:58;99007.19;;;-12.17;100.00
21574;BME280;10948;48.706;9.258;2022-12-18T05:37:23;99011.66;;;-12.29;100.00
21574;BME280;10948;48.706;9.258;2022-12-18T05:39:49;99012.91;;;-12.37;100.00
21574;BME280;10948;48.706;9.258;2022-12-18T05:42:14;99016.69;;;-12.45;100.00
21574;BME280;10948;48.706;9.258;2022-12-18T05:44:39;99013.13;;;-12.66;100.00
21574;BME280;10948;48.706;9.258;2022-12-18T05:47:04;99013.34;;;-12.45;100.00
21574;BME280;10948;48.706;9.258;2022-12-18T05:49:29;99011.38;;;-12.51;100.00
21574;BME280;10948;48.706;9.258;2022-12-18T05:51:55;99012.41;;;-12.81;100.00
21574;BME280;10948;48.706;9.258;2022-12-18T05:54:20;99010.16;;;-12.59;100.00
21574;BME280;10948;48.706;9.258;2022-12-18T05:56:46;99011.13;;;-12.73;100.00
21574;BME280;10948;48.706;9.258;2022-12-18T05:59:12;99011.22;;;-12.87;100.00
21574;BME280;10948;48.706;9.258;2022-12-18T06:01:37;98998.84;;;-13.18;100.00
21574;BME280;10948;48.706;9.258;2022-12-18T06:04:02;99009.94;;;-13.13;100.00
21574;BME280;10948;48.706;9.258;2022-12-18T06:06:27;99005.88;;;-13.27;100.00
21574;BME280;10948;48.706;9.258;2022-12-18T06:08:54;99004.28;;;-13.09;100.00
21574;BME280;10948;48.706;9.258;2022-12-18T06:11:20;98998.50;;;-13.24;100.00
21574;BME280;10948;48.706;9.258;2022-12-18T06:13:46;99004.63;;;-13.19;100.00
21574;BME280;10948;48.706;9.258;2022-12-18T06:16:11;99012.69;;;-13.24;99.95
21574;BME280;10948;48.706;9.258;2022-12-18T06:18:37;99024.38;;;-13.39;100.00
21574;BME280;10948;48.706;9.258;2022-12-18T06:21:02;99017.28;;;-13.48;99.94
21574;BME280;10948;48.706;9.258;2022-12-18T06:23:28;99016.97;;;-13.54;100.00
21574;BME280;10948;48.706;9.258;2022-12-18T06:25:53;99018.16;;;-13.15;100.00
21574;BME280;10948;48.706;9.258;2022-12-18T06:28:18;99008.63;;;-13.22;100.00
21574;BME280;10948;48.706;9.258;2022-12-18T06:30:44;99007.75;;;-13.39;100.00
21574;BME280;10948;48.706;9.258;2022-12-18T06:33:09;99014.38;;;-13.55;100.00
21574;BME280;10948;48.706;9.258;2022-12-18T06:35:35;99026.78;;;-13.57;100.00
21574;BME280;10948;48.706;9.258;2022-12-18T06:38:00;99027.59;;;-13.88;99.95
21574;BME280;10948;48.706;9.258;2022-12-18T06:40:26;99031.47;;;-13.63;100.00
21574;BME280;10948;48.706;9.258;2022-12-18T06:42:51;99031.66;;;-13.60;99.14
21574;BME280;10948;48.706;9.258;2022-12-18T06:45:16;99046.78;;;-13.57;99.82
21574;BME280;10948;48.706;9.258;2022-12-18T06:47:41;99034.81;;;-13.32;100.00
21574;BME280;10948;48.706;9.258;2022-12-18T06:50:07;99045.75;;;-13.30;100.00
21574;BME280;10948;48.706;9.258;2022-12-18T06:52:32;99043.88;;;-13.34;100.00
21574;BME280;10948;48.706;9.258;2022-12-18T06:54:57;99036.75;;;-13.42;100.00
21574;BME280;10948;48.706;9.258;2022-12-18T06:57:23;99034.50;;;-13.06;99.88
21574;BME280;10948;48.706;9.258;2022-12-18T06:59:48;99033.00;;;-13.50;98.67
21574;BME280;10948;48.706;9.258;2022-12-18T07:02:13;99037.78;;;-13.23;100.00
21574;BME280;10948;48.706;9.258;2022-12-18T07:04:39;99036.88;;;-13.55;99.70
21574;BME280;10948;48.706;9.258;2022-12-18T07:07:04;99048.06;;;-13.49;99.23
21574;BME280;10948;48.706;9.258;2022-12-18T07:09:29;99050.88;;;-13.43;99.20
21574;BME280;10948;48.706;9.258;2022-12-18T07:11:55;99053.31;;;-13.44;100.00
21574;BME280;10948;48.706;9.258;2022-12-18T07:14:20;99052.63;;;-13.42;100.00
21574;BME280;10948;48.706;9.258;2022-12-18T07:16:45;99056.94;;;-13.07;100.00
21574;BME280;10948;48.706;9.258;2022-12-18T07:19:10;99067.34;;;-13.00;99.75
21574;BME280;10948;48.706;9.258;2022-12-18T07:21:36;99065.22;;;-13.08;99.67
21574;BME280;10948;48.706;9.258;2022-12-18T07:24:01;99076.09;;;-12.92;99.28
21574;BME280;10948;48.706;9.258;2022-12-18T07:26:26;99080.63;;;-12.85;98.56
21574;BME280;10948;48.706;9.258;2022-12-18T07:28:54;99074.22;;;-12.96;98.65
21574;BME280;10948;48.706;9.258;2022-12-18T07:31:20;99073.16;;;-13.01;98.95
21574;BME280;10948;48.706;9.258;2022-12-18T07:33:46;99073.28;;;-12.82;100.00
21574;BME280;10948;48.706;9.258;2022-12-18T07:36:11;99081.63;;;-12.81;100.00
21574;BME280;10948;48.706;9.258;2022-12-18T07:38:37;99077.50;;;-12.81;100.00
21574;BME280;10948;48.706;9.258;2022-12-18T07:41:12;99077.63;;;-12.78;100.00
21574;BME280;10948;48.706;9.258;2022-12-18T07:43:38;99070.13;;;-12.62;98.95
21574;BME280;10948;48.706;9.258;2022-12-18T07:46:04;99077.31;;;-12.52;99.63
21574;BME280;10948;48.706;9.258;2022-12-18T07:48:29;99080.16;;;-12.62;98.65
21574;BME280;10948;48.706;9.258;2022-12-18T07:51:02;99085.00;;;-12.49;99.94
21574;BME280;10948;48.706;9.258;2022-12-18T07:53:27;99079.50;;;-12.42;99.81
21574;BME280;10948;48.706;9.258;2022-12-18T07:55:56;99076.84;;;-11.94;99.90
21574;BME280;10948;48.706;9.258;2022-12-18T07:58:22;99082.44;;;-11.82;99.16
21574;BME280;10948;48.706;9.258;2022-12-18T08:00:47;99092.78;;;-11.58;99.59
21574;BME280;10948;48.706;9.258;2022-12-18T08:03:12;99090.41;;;-11.00;99.54
21574;BME280;10948;48.706;9.258;2022-12-18T08:05:37;99085.41;;;-10.81;98.03
21574;BME280;10948;48.706;9.258;2022-12-18T08:08:03;99086.47;;;-10.76;96.36
21574;BME280;10948;48.706;9.258;2022-12-18T08:10:28;99079.84;;;-10.55;96.13
21574;BME280;10948;48.706;9.258;2022-12-18T08:12:53;99092.59;;;-10.11;95.69
21574;BME280;10948;48.706;9.258;2022-12-18T08:15:18;99085.41;;;-10.02;93.60
21574;BME280;10948;48.706;9.258;2022-12-18T08:17:44;99097.06;;;-10.04;93.34
21574;BME280;10948;48.706;9.258;2022-12-18T08:20:09;99090.44;;;-9.61;92.11
21574;BME280;10948;48.706;9.258;2022-12-18T08:22:34;99088.72;;;-9.62;91.31
21574;BME280;10948;48.706;9.258;2022-12-18T08:25:00;99085.41;;;-9.39;90.95
21574;BME280;10948;48.706;9.258;2022-12-18T08:27:25;99090.50;;;-9.16;90.90
21574;BME280;10948;48.706;9.258;2022-12-18T08:29:51;99083.63;;;-9.42;91.50
21574;BME280;10948;48.706;9.258;2022-12-18T08:32:16;99085.88;;;-9.27;91.25
21574;BME280;10948;48.706;9.258;2022-12-18T08:34:41;99086.44;;;-8.90;90.83
21574;BME280;10948;48.706;9.258;2022-12-18T08:37:06;99079.38;;;-8.53;90.59
21574;BME280;10948;48.706;9.258;2022-12-18T08:39:31;99084.00;;;-7.65;89.94
21574;BME280;10948;48.706;9.258;2022-12-18T08:41:57;99071.75;;;-6.07;84.67
21574;BME280;10948;48.706;9.258;2022-12-18T08:44:41;99072.00;;;-5.28;80.16
21574;BME280;10948;48.706;9.258;2022-12-18T08:47:06;99066.94;;;-5.28;76.66
21574;BME280;10948;48.706;9.258;2022-12-18T08:49:32;99062.50;;;-5.71;74.96
21574;BME280;10948;48.706;9.258;2022-12-18T08:51:57;99072.47;;;-6.13;76.30
21574;BME280;10948;48.706;9.258;2022-12-18T08:54:23;99075.50;;;-6.26;76.41
21574;BME280;10948;48.706;9.258;2022-12-18T08:56:48;99078.19;;;-5.87;78.18
21574;BME280;10948;48.706;9.258;2022-12-18T08:59:14;99065.69;;;-5.78;77.58
21574;BME280;10948;48.706;9.258;2022-12-18T09:01:40;99068.50;;;-5.32;78.43
21574;BME280;10948;48.706;9.258;2022-12-18T09:04:05;99063.78;;;-5.18;78.21
21574;BME280;10948;48.706;9.258;2022-12-18T09:06:30;99058.06;;;-4.68;76.96
21574;BME280;10948;48.706;9.258;2022-12-18T09:08:56;99055.31;;;-4.78;77.17
21574;BME280;10948;48.706;9.258;2022-12-18T09:11:22;99058.03;;;-4.69;76.42
21574;BME280;10948;48.706;9.258;2022-12-18T09:13:48;99050.47;;;-4.25;76.39
21574;BME280;10948;48.706;9.258;2022-12-18T09:16:13;99041.28;;;-3.68;75.78
21574;BME280;10948;48.706;9.258;2022-12-18T09:18:38;99048.75;;;-3.77;74.68
21574;BME280;10948;48.706;9.258;2022-12-18T09:21:07;99043.09;;;-3.61;74.30
21574;BME280;10948;48.706;9.258;2022-12-18T09:23:32;99044.28;;;-3.39;73.13
21574;BME280;10948;48.706;9.258;2022-12-18T09:25:58;99041.25;;;-3.14;73.24
21574;BME280;10948;48.706;9.258;2022-12-18T09:28:24;99038.78;;;-3.07;72.81
21574;BME280;10948;48.706;9.258;2022-12-18T09:30:49;99036.59;;;-3.44;72.76
21574;BME280;10948;48.706;9.258;2022-12-18T09:33:15;99037.66;;;-3.28;71.55
21574;BME280;10948;48.706;9.258;2022-12-18T09:35:40;99031.63;;;-3.35;71.03
21574;BME280;10948;48.706;9.258;2022-12-18T09:38:06;99038.50;;;-2.65;72.00
21574;BME280;10948;48.706;9.258;2022-12-18T09:40:36;99029.38;;;-2.47;70.30
21574;BME280;10948;48.706;9.258;2022-12-18T09:43:04;99037.09;;;-3.08;69.45
21574;BME280;10948;48.706;9.258;2022-12-18T09:45:33;99033.94;;;-2.17;70.09
21574;BME280;10948;48.706;9.258;2022-12-18T09:48:00;99030.19;;;-1.63;69.32
21574;BME280;10948;48.706;9.258;2022-12-18T09:50:28;99031.16;;;-1.52;68.93
21574;BME280;10948;48.706;9.258;2022-12-18T09:52:56;99034.63;;;-1.42;68.57
21574;BME280;10948;48.706;9.258;2022-12-18T09:55:33;99019.44;;;-1.18;67.70
21574;BME280;10948;48.706;9.258;2022-12-18T09:58:04;99014.06;;;-1.60;67.87
21574;BME280;10948;48.706;9.258;2022-12-18T10:00:31;99006.63;;;-1.32;68.48
21574;BME280;10948;48.706;9.258;2022-12-18T10:02:59;99016.09;;;-1.10;67.40
21574;BME280;10948;48.706;9.258;2022-12-18T10:08:17;99013.38;;;-1.38;67.47
21574;BME280;10948;48.706;9.258;2022-12-18T10:10:50;99005.78;;;-1.31;67.12
21574;BME280;10948;48.706;9.258;2022-12-18T10:13:22;99012.06;;;-0.66;67.06
21574;BME280;10948;48.706;9.258;2022-12-18T10:21:18;99007.97;;;-0.13;66.33
21574;BME280;10948;48.706;9.258;2022-12-18T10:26:16;99023.28;;;-0.17;65.58
21574;BME280;10948;48.706;9.258;2022-12-18T10:28:42;99027.53;;;-0.30;65.61
21574;BME280;10948;48.706;9.258;2022-12-18T10:31:16;99019.09;;;0.22;66.04
21574;BME280;10948;48.706;9.258;2022-12-18T10:33:42;99010.53;;;0.53;64.88
21574;BME280;10948;48.706;9.258;2022-12-18T10:36:07;99004.56;;;0.73;63.81
21574;BME280;10948;48.706;9.258;2022-12-18T10:38:32;98996.88;;;0.66;63.62
21574;BME280;10948;48.706;9.258;2022-12-18T10:43:27;99007.03;;;1.14;64.42
21574;BME280;10948;48.706;9.258;2022-12-18T10:46:11;99015.69;;;0.35;65.15
21574;BME280;10948;48.706;9.258;2022-12-18T10:51:06;99008.00;;;0.63;65.78
21574;BME280;10948;48.706;9.258;2022-12-18T10:53:33;99018.22;;;0.68;66.09
21574;BME280;10948;48.706;9.258;2022-12-18T10:56:02;99015.69;;;0.35;67.06
21574;BME280;10948;48.706;9.258;2022-12-18T10:58:29;99008.00;;;0.33;67.76
21574;BME280;10948;48.706;9.258;2022-12-18T11:01:13;99014.00;;;0.34;68.44
21574;BME280;10948;48.706;9.258;2022-12-18T11:03:40;99009.66;;;0.79;68.96
21574;BME280;10948;48.706;9.258;2022-12-18T11:08:37;99007.16;;;0.48;67.66
21574;BME280;10948;48.706;9.258;2022-12-18T11:11:04;99006.09;;;-0.71;69.36
21574;BME280;10948;48.706;9.258;2022-12-18T11:13:32;99002.03;;;0.18;71.34
21574;BME280;10948;48.706;9.258;2022-12-18T11:15:57;98996.84;;;-0.24;72.65
21574;BME280;10948;48.706;9.258;2022-12-18T11:20:52;98983.25;;;0.61;71.53
21574;BME280;10948;48.706;9.258;2022-12-18T11:23:19;98978.03;;;1.04;71.76
21574;BME280;10948;48.706;9.258;2022-12-18T11:25:51;98973.66;;;1.29;71.03
21574;BME280;10948;48.706;9.258;2022-12-18T11:36:19;98959.84;;;1.49;72.21
21574;BME280;10948;48.706;9.258;2022-12-18T11:38:49;98965.94;;;1.35;71.25
21574;BME280;10948;48.706;9.258;2022-12-18T11:41:26;98954.06;;;1.10;72.40
21574;BME280;10948;48.706;9.258;2022-12-18T11:44:19;98962.53;;;1.30;73.72
21574;BME280;10948;48.706;9.258;2022-12-18T11:46:49;98956.38;;;1.62;73.11
21574;BME280;10948;48.706;9.258;2022-12-18T11:49:24;98947.00;;;1.57;72.47
21574;BME280;10948;48.706;9.258;2022-12-18T11:54:19;98945.44;;;1.26;74.51
21574;BME280;10948;48.706;9.258;2022-12-18T11:56:46;98950.56;;;1.35;74.99
21574;BME280;10948;48.706;9.258;2022-12-18T12:01:51;98955.94;;;0.51;76.21
21574;BME280;10948;48.706;9.258;2022-12-18T12:09:52;98927.81;;;0.36;77.08
21574;BME280;10948;48.706;9.258;2022-12-18T12:15:23;98928.63;;;0.56;78.52
21574;BME280;10948;48.706;9.258;2022-12-18T12:17:54;98922.72;;;0.13;79.15
21574;BME280;10948;48.706;9.258;2022-12-18T12:30:54;98918.47;;;0.02;83.81
21574;BME280;10948;48.706;9.258;2022-12-18T12:33:38;98916.75;;;0.22;82.36
21574;BME280;10948;48.706;9.258;2022-12-18T12:36:08;98914.13;;;0.55;89.45
21574;BME280;10948;48.706;9.258;2022-12-18T12:38:40;98916.75;;;-0.11;87.52
21574;BME280;10948;48.706;9.258;2022-12-18T12:41:09;98917.59;;;0.13;87.72
21574;BME280;10948;48.706;9.258;2022-12-18T12:43:55;98920.16;;;-0.28;88.48
21574;BME280;10948;48.706;9.258;2022-12-18T12:46:22;98919.25;;;-0.50;89.03
21574;BME280;10948;48.706;9.258;2022-12-18T12:53:41;98925.19;;;-0.69;91.19
21574;BME280;10948;48.706;9.258;2022-12-18T12:56:07;98920.06;;;-0.60;92.14
21574;BME280;10948;48.706;9.258;2022-12-18T13:03:35;98938.72;;;-0.94;95.07
21574;BME280;10948;48.706;9.258;2022-12-18T13:06:40;98942.97;;;-0.96;95.74
21574;BME280;10948;48.706;9.258;2022-12-18T13:08:59;98938.78;;;-0.67;94.85
21574;BME280;10948;48.706;9.258;2022-12-18T13:11:38;98935.41;;;-0.69;94.68
21574;BME280;10948;48.706;9.258;2022-12-18T13:14:27;98931.84;;;-1.10;94.67
21574;BME280;10948;48.706;9.258;2022-12-18T13:19:38;98952.31;;;-1.04;96.50
21574;BME280;10948;48.706;9.258;2022-12-18T13:22:03;98945.50;;;-1.02;98.81
21574;BME280;10948;48.706;9.258;2022-12-18T13:24:30;98950.59;;;-1.02;98.62
21574;BME280;10948;48.706;9.258;2022-12-18T13:26:55;98941.94;;;-1.37;98.25
21574;BME280;10948;48.706;9.258;2022-12-18T13:29:41;98937.78;;;-1.15;99.91
21574;BME280;10948;48.706;9.258;2022-12-18T13:32:17;98939.56;;;-1.02;99.02
21574;BME280;10948;48.706;9.258;2022-12-18T13:34:43;98933.53;;;-1.18;99.15
21574;BME280;10948;48.706;9.258;2022-12-18T13:39:53;98921.53;;;-1.31;100.00
21574;BME280;10948;48.706;9.258;2022-12-18T13:45:08;98928.19;;;-1.57;100.00
21574;BME280;10948;48.706;9.258;2022-12-18T13:47:47;98930.09;;;-1.26;100.00
21574;BME280;10948;48.706;9.258;2022-12-18T13:50:25;98915.53;;;-1.37;100.00
21574;BME280;10948;48.706;9.258;2022-12-18T13:52:51;98924.78;;;-1.59;100.00
21574;BME280;10948;48.706;9.258;2022-12-18T13:55:18;98923.13;;;-1.55;100.00
21574;BME280;10948;48.706;9.258;2022-12-18T13:57:43;98924.78;;;-1.59;100.00
21574;BME280;10948;48.706;9.258;2022-12-18T14:00:28;98925.59;;;-1.66;100.00
21574;BME280;10948;48.706;9.258;2022-12-18T14:02:54;98921.28;;;-1.76;100.00
21574;BME280;10948;48.706;9.258;2022-12-18T14:07:55;98924.72;;;-1.71;100.00
21574;BME280;10948;48.706;9.258;2022-12-18T14:10:24;98926.28;;;-1.91;100.00
21574;BME280;10948;48.706;9.258;2022-12-18T14:12:50;98925.44;;;-1.88;100.00
21574;BME280;10948;48.706;9.258;2022-12-18T14:15:34;98927.13;;;-1.92;100.00
21574;BME280;10948;48.706;9.258;2022-12-18T14:18:43;98933.75;;;-2.09;100.00
21574;BME280;10948;48.706;9.258;2022-12-18T14:20:50;98934.53;;;-2.19;100.00
21574;BME280;10948;48.706;9.258;2022-12-18T14:23:39;98938.66;;;-2.34;100.00
21574;BME280;10948;48.706;9.258;2022-12-18T14:26:25;98929.34;;;-2.28;100.00
21574;BME280;10948;48.706;9.258;2022-12-18T14:28:48;98936.97;;;-2.32;100.00